Skip to Main Content
SEARCH:
Location Air RH Dwp Precip Type Wind Speed Wind Gust Direction Pavement Temperature Date/Time
Hatem Bridge US 40 E/B 57 97 56 None 7 mph 11 mph N 57 - 57 4/25/2017 9:56:00 PM
I-270 at I-370 57 96 56 None Calm Calm NE 58 - 58 4/25/2017 9:55:00 PM
I-270 at MD-109 57 100 57 None Calm 5 mph W 58 - 58 4/25/2017 9:55:00 PM
I-495 at American Legion Bridge 59 100 59 None Calm 7 mph NE 59 - 60 4/25/2017 9:55:00 PM
I-68 at MD-219 49 100 49 None 6 mph 12 mph E 51 - 52 4/25/2017 9:55:00 PM
I-68 at Savage Mt 50 100 50 None 4 mph 11 mph NE 51 - 51 4/25/2017 9:55:00 PM
I-68 at Sideling Hill 54 100 54 None 4 mph 11 mph NE 55 - 55 4/25/2017 9:55:00 PM
I-68 at WV Line 52 93 50 None 4 mph 6 mph SE 55 - 56 4/25/2017 9:55:00 PM
I-695 at I-83 57 93 55 None 7 mph 12 mph N 57 - 57 4/25/2017 9:55:00 PM
I-70 at Fred-Wash Co. 54 100 54 None Calm 4 mph W 55 - 55 4/25/2017 9:55:00 PM
I-70 at I-695 56 99 56 None Calm 8 mph E 57 - 59 4/25/2017 9:55:00 PM
I-70 at I-81 56 100 56 None 6 mph 12 mph NE 56 - 56 4/25/2017 9:55:00 PM
I-70 at MD-27 - - - No Data Available - - No Data Available -
I-70 at MD-32 55 98 55 None Calm 7 mph N 57 - 58 4/25/2017 9:55:00 PM
I-83 at MD-137 55 100 55 None 6 mph 12 mph N 57 - 57 4/25/2017 9:55:00 PM
I-95 at I-695 NE 57 94 55 Rain 4 mph 7 mph NE 57 - 58 4/25/2017 9:56:00 PM
I-95 at Patuxent River 57 100 57 None Calm 10 mph NE 58 - 58 4/25/2017 9:55:00 PM
I-95 at Tydings Bridge 56 94 55 None 6 mph 14 mph E 57 - 57 4/25/2017 9:55:00 PM
I-95/495 at I-295 60 89 57 None 4 mph 8 mph N 58 - 59 4/25/2017 9:55:00 PM
I-97 at MD-100 56 97 55 Rain 10 mph 15 mph NE 57 - 58 4/25/2017 9:55:00 PM
I-97 at MD-32 55 97 54 Rain 11 mph 19 mph N 57 - 57 4/25/2017 9:55:00 PM
MD 20 at MD 21 56 96 55 Rain Calm 12 mph E 57 - 57 4/25/2017 9:55:00 PM
MD 231 at Patuxent River 58 99 58 None 13 mph 16 mph N 58 - 60 4/25/2017 9:55:00 PM
MD 260 at Cox Rd 56 99 56 None Calm 8 mph N 59 - 59 4/25/2017 9:55:00 PM
MD-135 at Salt Dome 48 100 48 None 4 mph 6 mph SE 51 - 51 4/25/2017 9:55:00 PM
MD-140 at MD-97 55 100 55 None 6 mph 10 mph NE 56 - 56 4/25/2017 9:55:00 PM
MD-200 EB at Bonifant Rd 56 99 55 None Calm 7 mph N 57 - 58 4/25/2017 9:56:00 PM
MD-200 WB at Muncaster Mill Rd 56 96 55 None Calm 5 mph W 57 - 59 4/25/2017 9:56:00 PM
MD-213 at Sassafras River 56 100 56 Rain 4 mph 16 mph NE 57 - 57 4/25/2017 9:55:00 PM
MD-24 at Rock St Park 56 100 56 None Calm 6 mph NW 57 - 57 4/25/2017 9:55:00 PM
MD-30 at PA Line 54 100 54 None 6 mph 11 mph NE 56 - 56 4/25/2017 9:55:00 PM
MD-301 at MD-305 56 96 55 None 5 mph 11 mph NE 58 - 58 4/25/2017 9:55:00 PM
MD-33 at Knapps Narrows Drawbridge - - - No Data Available - - No Data Available -
MD-344 at MD-224 58 98 57 None Calm 5 mph NW 60 - 60 4/25/2017 9:55:00 PM
MD-4 at Patuxent River 59 100 59 None - - No Data Available 60 - 61 4/25/2017 9:55:00 PM
MD-404 at Choptank River 56 95 55 None 5 mph 11 mph NE 57 - 59 4/25/2017 9:55:00 PM
MD-43 at MD-150 57 100 57 Rain 9 mph 17 mph NE 57 - 57 4/25/2017 9:55:00 PM
MD-51 at Oldtown Salt Dome - - - No Data Available - - No Data Available -
MD-64 at MD-418 - - - No Data Available - - No Data Available -
US-1 at Baltimore / Harford Co. Line 56 95 55 None Calm 5 mph W 57 - 58 4/25/2017 9:55:00 PM
US-1 at Conowingo Dam 57 100 57 None Calm 4 mph W 58 - 58 4/25/2017 9:55:00 PM
US-13 at US-113 63 98 62 None 4 mph 8 mph NE 64 - 64 4/25/2017 9:55:00 PM
US-13 at US-50 - - - No Data Available - - No Data Available -
US-15 at MD-140 56 96 55 None Calm 7 mph NW 56 - 57 4/25/2017 9:55:00 PM
US-301 at MD-5 57 100 57 None 6 mph 13 mph NW 59 - 59 4/25/2017 9:55:00 PM
US-301 at Potomac 62 90 59 None Calm 4 mph N 59 - 60 4/25/2017 9:55:00 PM
US-301 on HWN Bridge 58 97 58 None 8 mph 13 mph N 60 - 60 4/25/2017 9:57:00 PM
US-340 at MD-180 55 98 55 None Calm 5 mph NW 57 - 58 4/25/2017 9:55:00 PM
US-50 at Choptank 58 100 58 None 7 mph 12 mph NE 60 - 60 4/25/2017 9:55:00 PM
US-50 at I-95 57 100 57 None Calm 7 mph NE 58 - 60 4/25/2017 9:55:00 PM
US-50 at MD-2 56 100 56 Rain 4 mph 11 mph N 57 - 57 4/25/2017 9:55:00 PM
US-50 at MD-331 61 93 59 None 5 mph 17 mph N 60 - 61 4/25/2017 9:55:00 PM
US-50 at OC Drawbridge 55 100 55 None Calm 7 mph N 58 - 58 4/25/2017 9:55:00 PM
US-50 at Table Rock Rd 48 100 48 None 5 mph 9 mph E 50 - 50 4/25/2017 9:55:00 PM
US-50 Kent Narrow Bridge 57 100 57 None 5 mph 13 mph N 58 - 58 4/25/2017 9:55:00 PM
WPL Pier 31 55 99 55 Rain 18 mph 19 mph NE 57 - 57 4/25/2017 9:56:00 PM
Location Air RH Dwp Precip Type Wind Speed Wind Gust Direction Pavement Temperature Date/Time